Time;durP1;ratioP1;P1;durP2;ratioP2;P2;SDS_P1;SDS_P2;PMS_P1;PMS_P2;Temp;Humidity;BMP_temperature;BMP_pressure;BME280_temperature;BME280_humidity;BME280_pressure;Samples;Min_cycle;Max_cycle;Signal;HPM_P1;HPM_P2
2023/04/21 00:00:49;;;;;;;;;;;9.90;61.70;;;;;;5097693;28;19908;-58
2023/04/21 00:03:14;;;;;;;;;;;9.90;62.20;;;;;;5099207;28;19908;-58
2023/04/21 00:05:41;;;;;;;;;;;9.80;62.30;;;;;;5099097;28;20008;-58
2023/04/21 00:08:07;;;;;;;;;;;9.80;63.90;;;;;;5098140;28;19915;-58
2023/04/21 00:10:33;;;;;;;;;;;9.80;62.60;;;;;;5098993;28;19908;-58
2023/04/21 00:12:58;;;;;;;;;;;9.90;64.20;;;;;;5098990;28;19908;-58
2023/04/21 00:15:24;;;;;;;;;;;9.90;62.40;;;;;;5098796;28;19908;-58
2023/04/21 00:17:50;;;;;;;;;;;9.70;63.60;;;;;;5098546;28;20022;-58
2023/04/21 00:20:15;;;;;;;;;;;9.70;64.10;;;;;;5098891;28;19912;-58
2023/04/21 00:22:41;;;;;;;;;;;9.70;67.00;;;;;;5098853;28;19979;-58
2023/04/21 00:25:06;;;;;;;;;;;9.70;63.40;;;;;;5098948;28;20012;-58
2023/04/21 00:27:32;;;;;;;;;;;9.70;64.00;;;;;;5098467;28;19927;-58
2023/04/21 00:29:58;;;;;;;;;;;9.70;63.50;;;;;;5098952;28;19915;-59
2023/04/21 00:32:23;;;;;;;;;;;9.70;63.30;;;;;;5098554;28;20415;-58
2023/04/21 00:34:49;;;;;;;;;;;9.60;65.30;;;;;;5098836;28;19909;-59
2023/04/21 00:37:15;;;;;;;;;;;9.60;65.60;;;;;;5098446;28;20393;-58
2023/04/21 00:39:40;;;;;;;;;;;9.60;63.70;;;;;;5098860;28;19909;-58
2023/04/21 00:42:06;;;;;;;;;;;9.60;67.00;;;;;;5098716;28;20291;-58
2023/04/21 00:44:31;;;;;;;;;;;9.60;65.20;;;;;;5098336;28;19959;-59
2023/04/21 00:46:57;;;;;;;;;;;9.50;66.60;;;;;;5098569;28;19908;-58
2023/04/21 00:49:23;;;;;;;;;;;9.50;65.30;;;;;;5098990;28;19908;-58
2023/04/21 00:51:49;;;;;;;;;;;9.40;68.30;;;;;;5098324;28;19908;-58
2023/04/21 00:54:16;;;;;;;;;;;9.40;69.80;;;;;;5098181;28;20069;-58
2023/04/21 00:56:42;;;;;;;;;;;9.40;66.60;;;;;;5098251;28;19915;-58
2023/04/21 00:59:07;;;;;;;;;;;9.40;75.40;;;;;;5098198;28;20287;-59
2023/04/21 01:01:35;;;;;;;;;;;9.40;68.80;;;;;;5098254;28;19980;-58
2023/04/21 01:04:01;;;;;;;;;;;9.50;68.60;;;;;;5098355;28;19908;-58
2023/04/21 01:06:27;;;;;;;;;;;9.40;66.90;;;;;;5098480;28;19909;-58
2023/04/21 01:08:54;;;;;;;;;;;9.30;79.00;;;;;;5098337;28;19909;-58
2023/04/21 01:11:20;;;;;;;;;;;9.40;72.60;;;;;;5098063;28;19908;-58
2023/04/21 01:13:46;;;;;;;;;;;9.50;79.70;;;;;;5098129;28;19908;-58
2023/04/21 01:16:16;;;;;;;;;;;9.40;68.30;;;;;;5098255;28;19908;-58
2023/04/21 01:18:41;;;;;;;;;;;9.40;69.20;;;;;;5098231;28;19919;-58
2023/04/21 01:21:07;;;;;;;;;;;9.40;69.80;;;;;;5102229;28;19908;-58
2023/04/21 01:23:33;;;;;;;;;;;9.40;70.20;;;;;;5102036;28;19908;-59
2023/04/21 01:25:58;;;;;;;;;;;9.30;68.10;;;;;;5102048;28;20010;-58
2023/04/21 01:28:24;;;;;;;;;;;9.30;68.00;;;;;;5101515;28;19920;-58
2023/04/21 01:30:50;;;;;;;;;;;9.30;68.50;;;;;;5102214;28;19973;-58
2023/04/21 01:33:16;;;;;;;;;;;9.30;69.60;;;;;;5101770;28;19916;-58
2023/04/21 01:35:42;;;;;;;;;;;9.30;68.80;;;;;;5102072;28;19939;-58
2023/04/21 01:38:08;;;;;;;;;;;9.30;71.00;;;;;;5102427;28;19919;-58
2023/04/21 01:40:33;;;;;;;;;;;9.20;71.90;;;;;;5101697;28;19908;-58
2023/04/21 01:42:59;;;;;;;;;;;9.30;74.40;;;;;;5101835;28;19999;-58
2023/04/21 01:45:25;;;;;;;;;;;9.30;72.10;;;;;;5102151;28;19915;-58
2023/04/21 01:47:50;;;;;;;;;;;9.30;75.50;;;;;;5101795;28;19908;-58
2023/04/21 01:50:17;;;;;;;;;;;9.30;69.40;;;;;;5101747;28;20340;-58
2023/04/21 01:52:42;;;;;;;;;;;9.20;79.20;;;;;;5101483;28;19974;-58
2023/04/21 01:55:08;;;;;;;;;;;9.10;69.30;;;;;;5101434;28;19908;-59
2023/04/21 01:57:35;;;;;;;;;;;9.10;73.80;;;;;;5101388;28;19919;-58
2023/04/21 02:00:00;;;;;;;;;;;9.20;79.10;;;;;;5101442;28;19908;-58
2023/04/21 02:02:26;;;;;;;;;;;9.10;85.30;;;;;;5101727;28;19960;-58
2023/04/21 02:04:52;;;;;;;;;;;9.00;90.20;;;;;;5101288;28;19929;-58
2023/04/21 02:07:17;;;;;;;;;;;8.90;78.00;;;;;;5101384;28;19908;-58
2023/04/21 02:09:43;;;;;;;;;;;8.90;79.10;;;;;;5101453;28;20006;-58
2023/04/21 02:12:08;;;;;;;;;;;8.90;72.50;;;;;;5101325;28;20390;-58
2023/04/21 02:14:35;;;;;;;;;;;8.90;72.70;;;;;;5101130;28;19991;-58
2023/04/21 02:17:02;;;;;;;;;;;8.80;80.30;;;;;;5101389;28;20248;-58
2023/04/21 02:19:28;;;;;;;;;;;8.70;74.90;;;;;;5100990;28;19909;-58
2023/04/21 02:21:54;;;;;;;;;;;8.70;69.80;;;;;;5101787;28;19908;-58
2023/04/21 02:24:20;;;;;;;;;;;8.70;74.90;;;;;;5100947;28;19913;-58
2023/04/21 02:26:45;;;;;;;;;;;8.80;74.50;;;;;;5100832;28;19920;-57
2023/04/21 02:29:11;;;;;;;;;;;8.60;82.00;;;;;;5100945;28;19908;-58
2023/04/21 02:31:39;;;;;;;;;;;8.50;72.40;;;;;;5098885;28;21341;-58
2023/04/21 02:34:04;;;;;;;;;;;8.60;76.30;;;;;;5100746;28;19951;-58
2023/04/21 02:36:30;;;;;;;;;;;8.50;77.20;;;;;;5101030;28;20371;-58
2023/04/21 02:38:56;;;;;;;;;;;8.50;74.20;;;;;;5100282;28;19920;-58
2023/04/21 02:41:22;;;;;;;;;;;8.50;76.60;;;;;;5100722;28;19908;-58
2023/04/21 02:43:48;;;;;;;;;;;8.50;84.90;;;;;;5100534;28;19966;-58
2023/04/21 02:46:13;;;;;;;;;;;8.50;79.60;;;;;;5100390;28;19908;-58
2023/04/21 02:48:39;;;;;;;;;;;8.40;80.10;;;;;;5100448;28;19908;-58
2023/04/21 02:51:04;;;;;;;;;;;8.40;77.30;;;;;;5100556;28;19916;-58
2023/04/21 02:53:30;;;;;;;;;;;8.30;75.90;;;;;;5100479;28;19957;-58
2023/04/21 02:55:56;;;;;;;;;;;8.30;79.70;;;;;;5100170;28;19919;-58
2023/04/21 02:58:21;;;;;;;;;;;8.30;75.10;;;;;;5099933;28;19912;-58
2023/04/21 03:00:47;;;;;;;;;;;8.30;78.90;;;;;;5100135;28;19974;-58
2023/04/21 03:03:14;;;;;;;;;;;8.30;73.30;;;;;;5100170;28;19953;-58
2023/04/21 03:05:40;;;;;;;;;;;8.20;80.90;;;;;;5100070;28;19908;-58
2023/04/21 03:08:06;;;;;;;;;;;8.20;74.10;;;;;;5100085;28;19999;-58
2023/04/21 03:10:31;;;;;;;;;;;8.30;75.30;;;;;;5100375;28;19950;-58
2023/04/21 03:12:57;;;;;;;;;;;8.20;77.20;;;;;;5099708;28;19912;-58
2023/04/21 03:15:22;;;;;;;;;;;8.20;74.90;;;;;;5100142;28;19943;-58
2023/04/21 03:17:48;;;;;;;;;;;8.30;75.90;;;;;;5099787;28;20290;-58
2023/04/21 03:20:14;;;;;;;;;;;8.30;75.50;;;;;;5100292;28;19908;-58
2023/04/21 03:22:40;;;;;;;;;;;8.30;76.60;;;;;;5099837;28;19908;-58
2023/04/21 03:25:06;;;;;;;;;;;8.30;78.50;;;;;;5099722;28;20326;-58
2023/04/21 03:27:32;;;;;;;;;;;8.30;81.50;;;;;;5099737;28;20425;-58
2023/04/21 03:29:58;;;;;;;;;;;8.30;91.40;;;;;;5099802;28;19916;-58
2023/04/21 03:32:23;;;;;;;;;;;8.30;79.00;;;;;;5099755;28;19912;-58
2023/04/21 03:34:49;;;;;;;;;;;8.30;84.40;;;;;;5099999;28;19919;-58
2023/04/21 03:37:15;;;;;;;;;;;8.30;88.40;;;;;;5099332;28;19908;-58
2023/04/21 03:39:40;;;;;;;;;;;8.30;91.80;;;;;;5099606;28;19931;-58
2023/04/21 03:42:06;;;;;;;;;;;8.30;79.30;;;;;;5099174;28;19947;-58
2023/04/21 03:44:31;;;;;;;;;;;8.30;91.70;;;;;;5099117;28;19908;-58
2023/04/21 03:46:57;;;;;;;;;;;8.30;92.30;;;;;;5099295;28;19914;-58
2023/04/21 03:49:23;;;;;;;;;;;8.20;79.30;;;;;;5099036;28;19908;-58
2023/04/21 03:51:49;;;;;;;;;;;8.20;87.80;;;;;;5099631;28;19908;-58
2023/04/21 03:54:14;;;;;;;;;;;8.20;88.90;;;;;;5099231;28;19952;-58
2023/04/21 03:56:40;;;;;;;;;;;8.20;88.90;;;;;;5099253;28;19908;-58
2023/04/21 03:59:06;;;;;;;;;;;8.10;80.70;;;;;;5099187;28;19916;-58
2023/04/21 04:01:32;;;;;;;;;;;8.10;92.20;;;;;;5099183;28;19908;-58
2023/04/21 04:03:58;;;;;;;;;;;8.10;85.10;;;;;;5099272;28;19908;-58
2023/04/21 04:06:23;;;;;;;;;;;8.00;93.10;;;;;;5099143;28;19915;-58
2023/04/21 04:08:49;;;;;;;;;;;8.00;82.60;;;;;;5098711;28;19958;-58
2023/04/21 04:11:15;;;;;;;;;;;8.10;84.50;;;;;;5098888;28;19908;-58
2023/04/21 04:13:40;;;;;;;;;;;8.10;96.50;;;;;;5098867;28;20424;-58
2023/04/21 04:16:06;;;;;;;;;;;8.10;94.00;;;;;;5098774;28;19912;-58
2023/04/21 04:18:31;;;;;;;;;;;8.10;92.30;;;;;;5099123;28;19994;-58
2023/04/21 04:20:57;;;;;;;;;;;8.00;96.10;;;;;;5098871;28;20371;-58
2023/04/21 04:23:23;;;;;;;;;;;8.00;96.40;;;;;;5098908;28;19920;-58
2023/04/21 04:25:50;;;;;;;;;;;8.00;86.80;;;;;;5098679;28;19916;-58
2023/04/21 04:28:16;;;;;;;;;;;8.00;92.40;;;;;;5098337;28;20405;-58
2023/04/21 04:30:42;;;;;;;;;;;7.90;85.30;;;;;;5098520;28;20707;-58
2023/04/21 04:33:08;;;;;;;;;;;7.90;90.10;;;;;;5098568;28;19908;-58
2023/04/21 04:35:34;;;;;;;;;;;7.90;94.00;;;;;;5098434;28;20417;-58
2023/04/21 04:38:01;;;;;;;;;;;7.90;90.20;;;;;;5098715;28;19912;-58
2023/04/21 04:40:27;;;;;;;;;;;7.90;97.90;;;;;;5098690;28;19939;-58
2023/04/21 04:42:53;;;;;;;;;;;7.90;93.40;;;;;;5098218;28;20384;-58
2023/04/21 04:45:21;;;;;;;;;;;7.80;88.20;;;;;;5098570;28;19916;-58
2023/04/21 04:47:47;;;;;;;;;;;7.80;90.20;;;;;;5098302;28;19916;-58
2023/04/21 04:50:12;;;;;;;;;;;7.70;93.50;;;;;;5098303;28;19960;-58
2023/04/21 04:52:38;;;;;;;;;;;7.80;94.10;;;;;;5098513;28;19908;-58
2023/04/21 04:55:04;;;;;;;;;;;7.80;86.30;;;;;;5097867;28;19915;-58
2023/04/21 04:57:30;;;;;;;;;;;7.80;94.00;;;;;;5098016;28;19909;-58
2023/04/21 04:59:56;;;;;;;;;;;7.80;97.10;;;;;;5098249;28;19918;-58
2023/04/21 05:02:22;;;;;;;;;;;7.80;98.10;;;;;;5098528;28;20275;-58
2023/04/21 05:04:48;;;;;;;;;;;7.80;93.70;;;;;;5098106;28;20340;-58
2023/04/21 05:07:14;;;;;;;;;;;7.80;92.30;;;;;;5098258;28;20398;-58
2023/04/21 05:09:40;;;;;;;;;;;7.70;97.20;;;;;;5097494;28;19908;-58
2023/04/21 05:12:05;;;;;;;;;;;7.70;95.00;;;;;;5097632;28;19908;-58
2023/04/21 05:14:31;;;;;;;;;;;7.70;99.90;;;;;;5098108;28;19909;-58
2023/04/21 05:16:56;;;;;;;;;;;7.70;92.70;;;;;;5098287;28;19908;-58
2023/04/21 05:19:22;;;;;;;;;;;7.80;92.20;;;;;;5097226;28;20367;-58
2023/04/21 05:21:47;;;;;;;;;;;7.70;92.80;;;;;;5097341;28;19920;-58
2023/04/21 05:24:13;;;;;;;;;;;7.80;96.60;;;;;;5097614;28;19909;-59
2023/04/21 05:26:39;;;;;;;;;;;7.80;92.00;;;;;;5097461;28;20358;-58
2023/04/21 05:29:05;;;;;;;;;;;7.80;94.00;;;;;;5097500;28;19919;-59
2023/04/21 05:31:31;;;;;;;;;;;7.70;91.80;;;;;;5097741;28;19908;-59
2023/04/21 05:33:57;;;;;;;;;;;7.70;98.70;;;;;;5097320;28;19914;-59
2023/04/21 05:36:23;;;;;;;;;;;7.70;90.90;;;;;;5097611;28;19908;-58
2023/04/21 05:38:49;;;;;;;;;;;7.80;91.80;;;;;;5097356;28;19908;-59
2023/04/21 05:41:15;;;;;;;;;;;7.80;93.40;;;;;;5097363;28;20260;-59
2023/04/21 05:43:41;;;;;;;;;;;7.80;92.30;;;;;;5096340;28;19919;-58
2023/04/21 05:46:09;;;;;;;;;;;7.80;93.20;;;;;;5096705;28;20271;-58
2023/04/21 05:48:35;;;;;;;;;;;7.90;92.30;;;;;;5097036;28;19912;-59
2023/04/21 05:51:10;;;;;;;;;;;7.90;91.80;;;;;;5097359;28;19915;-58
2023/04/21 05:53:37;;;;;;;;;;;8.00;90.10;;;;;;5097458;28;19931;-58
2023/04/21 05:56:02;;;;;;;;;;;7.90;91.50;;;;;;5097333;28;19908;-59
2023/04/21 05:58:29;;;;;;;;;;;8.10;92.30;;;;;;5097041;28;19908;-59
2023/04/21 06:00:55;;;;;;;;;;;8.10;96.80;;;;;;5097583;28;19987;-58
2023/04/21 06:03:20;;;;;;;;;;;8.10;92.80;;;;;;5097174;28;19915;-58
2023/04/21 06:05:46;;;;;;;;;;;8.20;93.80;;;;;;5097337;28;19979;-59
2023/04/21 06:08:12;;;;;;;;;;;8.30;98.80;;;;;;5101107;28;19919;-58
2023/04/21 06:10:37;;;;;;;;;;;8.30;93.70;;;;;;5100581;28;19952;-58
2023/04/21 06:13:03;;;;;;;;;;;8.30;94.10;;;;;;5100576;28;19908;-58
2023/04/21 06:15:29;;;;;;;;;;;8.40;97.30;;;;;;5100605;28;19908;-58
2023/04/21 06:17:55;;;;;;;;;;;8.50;93.60;;;;;;5100561;28;19932;-59
2023/04/21 06:20:20;;;;;;;;;;;8.50;92.20;;;;;;5099422;28;19915;-58
2023/04/21 06:22:46;;;;;;;;;;;8.60;92.00;;;;;;5100474;28;20399;-58
2023/04/21 06:25:11;;;;;;;;;;;8.60;94.20;;;;;;5100617;28;20672;-59
2023/04/21 06:27:37;;;;;;;;;;;8.60;99.90;;;;;;5100140;28;19920;-59
2023/04/21 06:30:03;;;;;;;;;;;8.60;98.00;;;;;;5100420;28;19908;-59
2023/04/21 06:32:28;;;;;;;;;;;8.70;94.00;;;;;;5100301;28;19908;-59
2023/04/21 06:34:54;;;;;;;;;;;8.70;99.90;;;;;;5100335;28;19961;-59
2023/04/21 06:37:20;;;;;;;;;;;8.70;98.90;;;;;;5100121;28;19908;-59
2023/04/21 06:39:45;;;;;;;;;;;8.90;95.30;;;;;;5098260;28;20402;-59
2023/04/21 06:42:11;;;;;;;;;;;8.90;95.20;;;;;;5099204;28;19908;-59
2023/04/21 06:44:37;;;;;;;;;;;8.90;99.10;;;;;;5099871;28;19995;-59
2023/04/21 06:47:03;;;;;;;;;;;9.00;99.90;;;;;;5099735;28;19908;-58
2023/04/21 06:49:29;;;;;;;;;;;9.10;97.10;;;;;;5099759;28;19908;-59
2023/04/21 06:51:55;;;;;;;;;;;9.20;99.90;;;;;;5100413;28;20347;-58
2023/04/21 06:54:20;;;;;;;;;;;9.30;99.90;;;;;;5099941;28;19930;-59
2023/04/21 06:56:46;;;;;;;;;;;9.20;99.90;;;;;;5099930;28;19912;-59
2023/04/21 06:59:12;;;;;;;;;;;9.30;99.90;;;;;;5099864;28;19988;-59
2023/04/21 07:01:37;;;;;;;;;;;9.30;99.90;;;;;;5099829;28;19908;-59
2023/04/21 07:04:04;;;;;;;;;;;9.40;99.90;;;;;;5099867;28;19908;-59
2023/04/21 07:06:30;;;;;;;;;;;9.40;99.90;;;;;;5098115;28;19908;-59
2023/04/21 07:08:56;;;;;;;;;;;9.50;99.90;;;;;;5098449;28;19916;-59
2023/04/21 07:11:22;;;;;;;;;;;9.60;99.90;;;;;;5099552;28;19908;-58
2023/04/21 07:13:47;;;;;;;;;;;9.60;99.90;;;;;;5100002;28;19909;-59
2023/04/21 07:16:13;;;;;;;;;;;9.60;99.90;;;;;;5098472;28;20279;-59
2023/04/21 07:18:39;;;;;;;;;;;9.70;99.90;;;;;;5099205;28;19912;-59
2023/04/21 07:21:05;;;;;;;;;;;9.80;99.90;;;;;;5099215;28;20329;-59
2023/04/21 07:23:30;;;;;;;;;;;9.80;99.90;;;;;;5099518;28;19908;-59
2023/04/21 07:25:56;;;;;;;;;;;9.80;99.90;;;;;;5099757;28;20395;-58
2023/04/21 07:28:22;;;;;;;;;;;9.80;99.90;;;;;;5098964;28;19920;-59
2023/04/21 07:30:47;;;;;;;;;;;10.00;99.90;;;;;;5099336;28;19978;-59
2023/04/21 07:33:13;;;;;;;;;;;9.80;99.90;;;;;;5099467;28;19958;-59
2023/04/21 07:35:38;;;;;;;;;;;9.80;99.90;;;;;;5099611;28;20610;-59
2023/04/21 07:38:04;;;;;;;;;;;9.90;99.90;;;;;;5099240;28;19991;-58
2023/04/21 07:40:30;;;;;;;;;;;9.80;99.90;;;;;;5099216;28;19908;-59
2023/04/21 07:42:56;;;;;;;;;;;9.90;99.90;;;;;;5099328;28;20309;-58
2023/04/21 07:45:21;;;;;;;;;;;9.90;99.90;;;;;;5099094;28;19943;-59
2023/04/21 07:47:47;;;;;;;;;;;10.00;99.90;;;;;;5098765;28;19934;-59
2023/04/21 07:50:12;;;;;;;;;;;10.20;99.90;;;;;;5098803;28;19908;-58
2023/04/21 07:52:38;;;;;;;;;;;10.20;99.90;;;;;;5098489;28;19915;-59
2023/04/21 07:55:04;;;;;;;;;;;10.30;99.90;;;;;;5098668;28;19915;-59
2023/04/21 07:57:32;;;;;;;;;;;10.40;99.90;;;;;;5098703;28;20279;-58
2023/04/21 07:59:58;;;;;;;;;;;10.40;99.90;;;;;;5098608;28;19915;-59
2023/04/21 08:02:23;;;;;;;;;;;10.50;99.90;;;;;;5098885;28;19908;-59
2023/04/21 08:04:49;;;;;;;;;;;10.50;99.90;;;;;;5098546;28;19908;-59
2023/04/21 08:07:14;;;;;;;;;;;10.70;99.90;;;;;;5098351;28;20502;-59
2023/04/21 08:09:40;;;;;;;;;;;10.70;99.90;;;;;;5098460;28;19912;-59
2023/04/21 08:12:06;;;;;;;;;;;10.70;99.90;;;;;;5098683;28;19912;-59
2023/04/21 08:14:31;;;;;;;;;;;10.80;99.90;;;;;;5098839;28;20267;-59
2023/04/21 08:16:57;;;;;;;;;;;10.90;99.90;;;;;;5098435;28;19915;-59
2023/04/21 08:19:23;;;;;;;;;;;11.00;99.90;;;;;;5097951;28;19934;-59
2023/04/21 08:21:49;;;;;;;;;;;11.10;99.90;;;;;;5098352;28;19908;-59
2023/04/21 08:24:15;;;;;;;;;;;11.10;99.90;;;;;;5098441;28;19958;-59
2023/04/21 08:26:40;;;;;;;;;;;11.20;99.90;;;;;;5097972;28;19915;-59
2023/04/21 08:29:08;;;;;;;;;;;11.20;99.90;;;;;;5097521;28;19915;-59
2023/04/21 08:31:34;;;;;;;;;;;11.40;99.90;;;;;;5098484;28;19908;-59
2023/04/21 08:34:00;;;;;;;;;;;11.60;99.90;;;;;;5098595;28;19914;-58
2023/04/21 08:36:26;;;;;;;;;;;11.70;99.90;;;;;;5097991;28;19912;-59
2023/04/21 08:38:52;;;;;;;;;;;11.70;99.90;;;;;;5098102;28;19908;-59
2023/04/21 08:41:18;;;;;;;;;;;11.80;99.90;;;;;;5098645;28;19912;-59
2023/04/21 08:43:44;;;;;;;;;;;11.80;99.90;;;;;;5098071;28;19908;-59
2023/04/21 08:46:11;;;;;;;;;;;11.80;99.90;;;;;;5098118;28;19908;-59
2023/04/21 08:48:37;;;;;;;;;;;11.70;99.90;;;;;;5098288;28;19931;-58
2023/04/21 08:51:03;;;;;;;;;;;11.90;99.90;;;;;;5097826;28;19985;-59
2023/04/21 08:53:29;;;;;;;;;;;12.10;99.90;;;;;;5098183;28;19987;-59
2023/04/21 08:55:55;;;;;;;;;;;12.30;99.90;;;;;;5097768;28;19942;-59
2023/04/21 08:58:21;;;;;;;;;;;12.50;99.50;;;;;;5098145;28;19909;-59
2023/04/21 09:00:50;;;;;;;;;;;12.70;99.80;;;;;;5098365;28;20375;-59
2023/04/21 09:03:25;;;;;;;;;;;13.00;97.60;;;;;;5097822;28;19908;-59
2023/04/21 09:06:01;;;;;;;;;;;13.20;96.10;;;;;;5097712;28;19915;-59
2023/04/21 09:08:28;;;;;;;;;;;13.40;97.50;;;;;;5097951;28;19917;-59
2023/04/21 09:10:54;;;;;;;;;;;13.70;98.80;;;;;;5098111;28;19908;-59
2023/04/21 09:13:22;;;;;;;;;;;14.00;94.40;;;;;;5097752;28;20283;-59
2023/04/21 09:15:48;;;;;;;;;;;13.90;95.00;;;;;;5097823;28;19930;-59
2023/04/21 09:18:15;;;;;;;;;;;14.00;93.60;;;;;;5097738;28;19916;-59
2023/04/21 09:20:42;;;;;;;;;;;14.00;93.20;;;;;;5097741;28;19915;-59
2023/04/21 09:23:08;;;;;;;;;;;14.00;90.80;;;;;;5097574;28;19972;-59
2023/04/21 09:25:34;;;;;;;;;;;14.00;87.10;;;;;;5097771;28;20346;-59
2023/04/21 09:27:59;;;;;;;;;;;13.90;91.50;;;;;;5097393;28;20437;-59
2023/04/21 09:30:25;;;;;;;;;;;14.10;91.40;;;;;;5097842;28;19912;-59
2023/04/21 09:32:54;;;;;;;;;;;14.10;88.60;;;;;;5097820;28;19908;-59
2023/04/21 09:35:20;;;;;;;;;;;14.00;90.60;;;;;;5097391;28;20434;-59
2023/04/21 09:37:46;;;;;;;;;;;14.00;86.60;;;;;;5097306;28;20034;-59
2023/04/21 09:40:13;;;;;;;;;;;14.00;89.00;;;;;;5098593;28;20026;-59
2023/04/21 09:42:40;;;;;;;;;;;14.20;89.10;;;;;;5101382;28;19908;-59
2023/04/21 09:45:08;;;;;;;;;;;14.40;92.80;;;;;;5101174;28;19908;-59
2023/04/21 09:47:38;;;;;;;;;;;15.10;83.80;;;;;;5100848;28;19991;-59
2023/04/21 09:50:05;;;;;;;;;;;15.80;97.10;;;;;;5100989;28;19908;-59
2023/04/21 09:52:32;;;;;;;;;;;16.70;97.70;;;;;;5101325;28;19915;-59
2023/04/21 09:55:03;;;;;;;;;;;17.50;81.10;;;;;;5101082;28;19991;-59
2023/04/21 09:57:30;;;;;;;;;;;17.90;79.60;;;;;;5101114;28;19908;-59
2023/04/21 10:00:00;;;;;;;;;;;18.10;77.90;;;;;;5101222;28;19915;-59
2023/04/21 10:02:28;;;;;;;;;;;18.10;77.30;;;;;;5101185;28;19912;-59
2023/04/21 10:04:54;;;;;;;;;;;18.50;71.30;;;;;;5101441;28;19934;-59
2023/04/21 10:07:19;;;;;;;;;;;18.00;68.50;;;;;;5101019;28;20371;-59
2023/04/21 10:09:47;;;;;;;;;;;18.10;75.60;;;;;;5100791;28;19908;-59
2023/04/21 10:12:14;;;;;;;;;;;18.50;72.20;;;;;;5100771;28;19915;-59
2023/04/21 10:14:39;;;;;;;;;;;18.40;70.90;;;;;;5100777;28;19943;-59
2023/04/21 10:17:06;;;;;;;;;;;18.70;68.80;;;;;;5101178;28;19915;-59
2023/04/21 10:19:38;;;;;;;;;;;19.90;88.90;;;;;;5100895;28;19908;-59
2023/04/21 10:22:10;;;;;;;;;;;20.50;65.20;;;;;;5100323;28;20037;-59
2023/04/21 10:24:37;;;;;;;;;;;19.70;67.00;;;;;;5100808;28;19947;-59
2023/04/21 10:27:02;;;;;;;;;;;20.60;66.90;;;;;;5100548;28;19950;-59
2023/04/21 10:29:29;;;;;;;;;;;20.10;65.10;;;;;;5100267;28;20383;-59
2023/04/21 10:31:55;;;;;;;;;;;21.10;68.30;;;;;;5100179;28;19958;-59
2023/04/21 10:34:21;;;;;;;;;;;21.60;65.00;;;;;;5100479;28;19908;-59
2023/04/21 10:36:52;;;;;;;;;;;22.60;63.30;;;;;;5100120;28;19935;-59
2023/04/21 10:39:27;;;;;;;;;;;23.30;60.10;;;;;;5100417;28;19908;-60
2023/04/21 10:42:11;;;;;;;;;;;24.40;63.50;;;;;;5100393;28;19948;-60
2023/04/21 10:44:43;;;;;;;;;;;25.50;58.20;;;;;;5100315;28;19908;-60
2023/04/21 10:47:10;;;;;;;;;;;25.50;54.40;;;;;;5100124;28;19976;-60
2023/04/21 10:49:38;;;;;;;;;;;25.00;57.90;;;;;;5099904;28;20367;-60
2023/04/21 10:52:05;;;;;;;;;;;24.40;50.80;;;;;;5099637;28;19908;-59
2023/04/21 10:54:40;;;;;;;;;;;22.80;53.40;;;;;;5099975;28;20367;-60
2023/04/21 10:57:07;;;;;;;;;;;21.60;50.80;;;;;;5099944;28;19908;-59
2023/04/21 10:59:33;;;;;;;;;;;22.30;60.30;;;;;;5100072;28;19908;-59
2023/04/21 11:01:58;;;;;;;;;;;21.90;53.40;;;;;;5100068;28;20389;-60
2023/04/21 11:04:24;;;;;;;;;;;22.30;55.50;;;;;;5100206;28;19908;-60
2023/04/21 11:07:08;;;;;;;;;;;22.10;54.70;;;;;;5099920;28;19922;-60
2023/04/21 11:09:35;;;;;;;;;;;22.40;52.00;;;;;;5099631;28;19919;-60
2023/04/21 11:12:06;;;;;;;;;;;22.50;55.30;;;;;;5099635;28;19909;-60
2023/04/21 11:14:34;;;;;;;;;;;21.90;52.50;;;;;;5099766;28;19908;-60
2023/04/21 11:17:00;;;;;;;;;;;21.30;54.50;;;;;;5099315;28;20006;-59
2023/04/21 11:19:26;;;;;;;;;;;21.00;54.90;;;;;;5099666;28;19908;-59
2023/04/21 11:21:54;;;;;;;;;;;19.40;54.90;;;;;;5099468;28;20368;-59
2023/04/21 11:24:20;;;;;;;;;;;18.90;55.50;;;;;;5099525;28;19915;-59
2023/04/21 11:26:46;;;;;;;;;;;19.30;59.10;;;;;;5098974;28;19923;-59
2023/04/21 11:29:13;;;;;;;;;;;18.80;58.10;;;;;;5099634;28;19979;-59
2023/04/21 11:31:40;;;;;;;;;;;18.10;59.20;;;;;;5099151;28;19908;-59
2023/04/21 11:34:05;;;;;;;;;;;18.30;60.80;;;;;;5099578;28;19930;-59
2023/04/21 11:36:34;;;;;;;;;;;17.90;61.80;;;;;;5099286;28;20291;-59
2023/04/21 11:39:06;;;;;;;;;;;17.30;62.80;;;;;;5099114;28;19912;-59
2023/04/21 11:41:32;;;;;;;;;;;17.40;63.30;;;;;;5099000;28;19915;-59
2023/04/21 11:43:58;;;;;;;;;;;16.80;65.20;;;;;;5099087;28;19908;-59
2023/04/21 11:46:27;;;;;;;;;;;16.10;65.90;;;;;;5099248;28;20393;-59
2023/04/21 11:49:05;;;;;;;;;;;15.80;65.50;;;;;;5098754;28;20299;-58
2023/04/21 11:51:35;;;;;;;;;;;16.20;68.90;;;;;;5098756;28;19908;-59
2023/04/21 11:54:01;;;;;;;;;;;17.40;64.60;;;;;;5099114;28;19908;-59
2023/04/21 11:56:26;;;;;;;;;;;17.60;65.60;;;;;;5098767;28;20371;-59
2023/04/21 11:58:52;;;;;;;;;;;18.00;66.80;;;;;;5099002;28;19965;-59
2023/04/21 12:01:19;;;;;;;;;;;19.00;63.20;;;;;;5098712;28;20282;-59
2023/04/21 12:03:51;;;;;;;;;;;19.20;63.50;;;;;;5098657;28;19967;-59
2023/04/21 12:06:25;;;;;;;;;;;18.80;60.60;;;;;;5099113;28;20275;-59
2023/04/21 12:09:01;;;;;;;;;;;18.80;61.50;;;;;;5098213;28;19919;-59
2023/04/21 12:11:27;;;;;;;;;;;19.40;59.10;;;;;;5098505;28;19911;-59
2023/04/21 12:13:55;;;;;;;;;;;20.80;65.00;;;;;;5098726;28;19908;-59
2023/04/21 12:16:20;;;;;;;;;;;21.10;61.10;;;;;;5098482;28;19908;-59
2023/04/21 12:18:47;;;;;;;;;;;21.40;59.50;;;;;;5098573;28;19912;-59
2023/04/21 12:21:14;;;;;;;;;;;21.90;61.40;;;;;;5098442;28;19915;-59
2023/04/21 12:23:39;;;;;;;;;;;20.90;57.10;;;;;;5098208;28;20336;-59
2023/04/21 12:26:05;;;;;;;;;;;20.50;56.80;;;;;;5098436;28;19909;-59
2023/04/21 12:28:31;;;;;;;;;;;20.20;57.30;;;;;;5098061;28;19920;-59
2023/04/21 12:30:56;;;;;;;;;;;20.20;57.70;;;;;;5098331;28;19919;-59
2023/04/21 12:33:22;;;;;;;;;;;19.20;59.10;;;;;;5098449;28;19908;-59
2023/04/21 12:35:48;;;;;;;;;;;18.70;60.40;;;;;;5098170;28;19908;-59
2023/04/21 12:38:13;;;;;;;;;;;18.50;60.00;;;;;;5098284;28;19915;-59
2023/04/21 12:40:39;;;;;;;;;;;18.00;61.50;;;;;;5098420;28;19909;-59
2023/04/21 12:43:04;;;;;;;;;;;18.70;61.70;;;;;;5097894;28;19908;-59
2023/04/21 12:45:31;;;;;;;;;;;18.80;59.90;;;;;;5098562;28;20275;-59
2023/04/21 12:47:57;;;;;;;;;;;20.00;62.50;;;;;;5098214;28;20337;-59
2023/04/21 12:50:22;;;;;;;;;;;20.00;57.00;;;;;;5098273;28;19916;-59
2023/04/21 12:52:50;;;;;;;;;;;20.00;60.30;;;;;;5098259;28;19967;-59
2023/04/21 12:55:16;;;;;;;;;;;20.00;59.20;;;;;;5098183;28;19908;-59
2023/04/21 12:57:42;;;;;;;;;;;19.90;58.30;;;;;;5098446;28;19932;-59
2023/04/21 13:00:11;;;;;;;;;;;19.30;56.90;;;;;;5098108;28;20299;-59
2023/04/21 13:02:36;;;;;;;;;;;19.50;59.30;;;;;;5097353;28;19919;-59
2023/04/21 13:05:03;;;;;;;;;;;19.90;59.80;;;;;;5097732;28;19909;-59
2023/04/21 13:07:30;;;;;;;;;;;19.60;57.30;;;;;;5097546;28;19908;-59
2023/04/21 13:09:56;;;;;;;;;;;19.00;60.00;;;;;;5097796;28;20331;-59
2023/04/21 13:12:22;;;;;;;;;;;19.40;60.50;;;;;;5097777;28;20420;-59
2023/04/21 13:14:47;;;;;;;;;;;19.70;58.90;;;;;;5098403;28;19908;-59
2023/04/21 13:17:14;;;;;;;;;;;18.90;59.40;;;;;;5101838;28;19909;-59
2023/04/21 13:19:40;;;;;;;;;;;18.40;60.80;;;;;;5101724;28;19929;-59
2023/04/21 13:22:05;;;;;;;;;;;17.90;61.30;;;;;;5101938;28;20414;-59
2023/04/21 13:24:31;;;;;;;;;;;17.40;61.50;;;;;;5101700;28;19908;-59
2023/04/21 13:26:57;;;;;;;;;;;17.60;62.60;;;;;;5101611;28;20425;-59
2023/04/21 13:29:23;;;;;;;;;;;17.90;62.90;;;;;;5101629;28;20275;-58
2023/04/21 13:31:49;;;;;;;;;;;18.20;61.50;;;;;;5101726;28;19908;-59
2023/04/21 13:34:14;;;;;;;;;;;17.80;61.90;;;;;;5101309;28;20004;-59
2023/04/21 13:36:40;;;;;;;;;;;17.50;61.90;;;;;;5101676;28;19999;-59
2023/04/21 13:39:09;;;;;;;;;;;17.40;63.10;;;;;;5101378;28;19908;-59
2023/04/21 13:41:35;;;;;;;;;;;17.60;61.30;;;;;;5101662;28;19915;-59
2023/04/21 13:44:01;;;;;;;;;;;17.80;63.00;;;;;;5101373;28;19908;-59
2023/04/21 13:46:26;;;;;;;;;;;17.70;62.60;;;;;;5101652;28;19916;-59
2023/04/21 13:48:53;;;;;;;;;;;18.00;62.70;;;;;;5101334;28;20002;-58
2023/04/21 13:51:19;;;;;;;;;;;17.60;62.70;;;;;;5101258;28;19908;-58
2023/04/21 13:53:45;;;;;;;;;;;17.60;63.60;;;;;;5101064;28;19908;-59
2023/04/21 13:56:12;;;;;;;;;;;17.50;63.10;;;;;;5101485;28;19919;-58
2023/04/21 13:58:38;;;;;;;;;;;17.40;63.90;;;;;;5101114;28;19946;-59
2023/04/21 14:01:03;;;;;;;;;;;17.50;64.90;;;;;;5101306;28;19908;-59
2023/04/21 14:03:29;;;;;;;;;;;17.70;63.90;;;;;;5101239;28;19958;-59
2023/04/21 14:05:55;;;;;;;;;;;17.40;65.90;;;;;;5101490;28;19908;-58
2023/04/21 14:08:21;;;;;;;;;;;17.70;64.50;;;;;;5100854;28;20291;-59
2023/04/21 14:10:47;;;;;;;;;;;17.30;64.40;;;;;;5101144;28;20424;-58
2023/04/21 14:13:13;;;;;;;;;;;17.40;65.80;;;;;;5100960;28;19998;-59
2023/04/21 14:15:38;;;;;;;;;;;17.60;63.20;;;;;;5101053;28;19915;-59
2023/04/21 14:18:04;;;;;;;;;;;17.40;63.90;;;;;;5100796;28;19908;-59